航空気象通報

ウインドサーファーのための航空気象通報による風予報です。

5/31-6/1の航空気象通報(国内、海外)

2011年05月31日 23時50分58秒 | TAF

羽田空港
TAF RJTT 310843Z 3109/0112 07016KT 9999 FEW030
      BECMG 3112/3114 04012KT
      BECMG 0100/0103 10008KT
      BECMG 0106/0109 18012KT
日本時間31日18-21時:070度から16ノットの風
21-23時:風が変化
23時-1日09時:040度から12ノットの風
09-12時:風が変化
12-15時:100度から8ノットの風
15-18時:風が変化
18-21時:180度から12ノットの風

富士山静岡空港
TAF AMD RJNS 311305Z 3113/0112 04004KT 4000 -SHRA BR FEW006 BKN009 BKN020
      TEMPO 3113/3118 2000 -SHRA BR FEW002 BKN003 BKN006
      BECMG 3116/3118 01005KT
      BECMG 3118/3121 8000 NSW FEW008 BKN015 BKN025
      BECMG 3121/3124 10006KT
日本時間31日18-1日01時:040度から4ノットの風
01-03時:風が変化
03-06時:010度から5ノット
06-09時:風が変化
09-21時:100度から6ノットの風
、1日03-06時の後、

福岡空港
TAF RJFF 310845Z 3109/0112 34006KT 9999 FEW015
      BECMG 3112/3114 14004KT
日本時間31日18-21時:340度から6ノットの風
21-23時:風が変化
23時-1日21時:140度から4ノットの風

那覇空港
TAF ROAH 310841Z 3109/0112 16004KT 9999 FEW015
日本時間31日18時-1日21時:160度から4ノットの風

マウイのカフルイ空港
TAF PHOG 311137Z 3112/0112 05010KT P6SM SCT050
     FM311800 05013G20KT P6SM SCT050
     FM312100 05020G28KT P6SM FEW050
     FM010900 05010KT P6SM FEW050
ハワイ時間31日02-08時:050度から10ノットの風
08-11時:050度から13ノット、突風20ノット
11-23時:050度から20ノット、突風28ノット
23時-1日02時:050度から10ノットの風

サイパン空港
TAF PGSN 311121Z 3112/0112 08007KT P6SM VCSH FEW020 SCT100
マリアナ時間31日22時-1日22時:080度から7ノットの風

コメント
この記事をはてなブックマークに追加

5/30-5/31の航空気象通報(国内、海外)

2011年05月31日 00時08分39秒 | TAF

羽田空港
TAF AMD RJTT 301135Z 3011/3112 01024KT 9999 FEW020 BKN050
      TEMPO 3011/3018 01025G35KT
      BECMG 3103/3106 08018KT
日本時間30日20時-31日12時:010度から24ノットの風
但し、30日20時-31日03時の間:一時、010度から25ノット、突風35ノット
12-15時:風が変化
15-21時:080度から18ノットの風

富士山静岡空港
TAF RJNS 300846Z 3009/3112 13006KT 9999 FEW020 BKN050
      BECMG 3012/3014 29006KT
      BECMG 3021/3024 18008KT
      BECMG 3103/3106 21012KT
日本時間30日18-21時:130度から6ノットの風
21-23時:風が変化
23時-31日06時:290度から6ノットの風
06-09時:風が変化
09-12時:180度から8ノットの風
12-15時:風が変化
15-21時:210度から12ノットの風
、30日06-09時の後、

福岡空港
TAF RJFF 300836Z 3009/3112 34007KT 9999 FEW020
      BECMG 3014/3016 14004KT
      BECMG 3103/3106 34010KT
日本時間30日18-23時:340度から7ノットの風
23時-31日01時:風が変化
01-12時:140度から4ノットの風
12-15時:風が変化
15-21時:340度から10ノットの風

那覇空港
TAF ROAH 300844Z 3009/3112 02010KT 9999 FEW025
      BECMG 3016/3018 13006KT
日本時間30日18時-31日01時:020度から10ノットの風
01-03時:風が変化
03-21時:130度から6ノットの風

マウイのカフルイ空港
TAF PHOG 301136Z 3012/3112 06010G20KT P6SM SCT050
      TEMPO 3012/3015 06010KT
     FM301900 08020G30KT P6SM FEW050
     FM310500 08010G20KT P6SM SCT050
     FM311000 08010KT P6SM SCT050
ハワイ時間30日02-09時:060度から10ノット、突風20ノット
但し、02-05時の間:一時、060度から10ノットの風
09-19時:080度から20ノット、突風30ノット
19-24時:080度から10ノット、突風20ノット
31日00-02時:080度から10ノットの風

サイパン空港
TAF PGSN 301139Z 3012/3112 07006KT P6SM VCSH FEW020
マリアナ時間30日22時-31日22時:070度から6ノットの風

コメント
この記事をはてなブックマークに追加

5/29-5/30の航空気象通報(国内、海外)

2011年05月29日 23時47分05秒 | TAF

羽田空港
TAF AMD TAF
      AMD RJTT 291336Z 2913/3012 03010KT 5000 BR FEW006 BKN015 BKN030
      TEMPO 2913/2918 3000 SHRA BR FEW003 BKN006
      BECMG 2915/2917 10010KT
      BECMG 3000/3003 02012KT
      BECMG 3009/3012 01024KT
日本時間29日22-24時:030度から10ノットの風
30日00-02時:風が変化
02-09時:100度から10ノットの風
09-12時:風が変化
12-18時:020度から12ノットの風
21時:010度から24ノットの風

但し、29日22時-30日03時の間:一時、

富士山静岡空港
TAF RJNS 290841Z 2909/3012 16014KT 1200 -SHRA BR FEW002 BKN005
      TEMPO 2909/2912 0400 SHRA FG FEW001 BKN002
      BECMG 2912/2914 3000 -SHRA BR
      BECMG 2921/2924 30010KT 9999 NSW FEW015 BKN040
日本時間29日18時-30日06時:21時:160度から14ノットの風
06-09時:風が変化
09-21時:300度から10ノットの風
、30日06-09時の後、

福岡空港
TAF RJFF 290847Z 2909/3012 34015KT 8000 FEW008 SCT010 BKN020
      TEMPO 2909/2911 35020G30KT 4000 SHRA BR FEW003 BKN009 BKN015
      TEMPO 2911/2912 35020G30KT
日本時間29日18時-30日21時:340度から15ノットの風
但し、29日18-21時の間:一時、350度から20ノット、突風30ノット

但し、29日20-21時の間:一時、

那覇空港
TAF ROAH 290847Z 2909/3012 01008KT 9999 FEW010 SCT025
日本時間29日22時-30日21時:010度から8ノットの風

マウイのカフルイ空港
TAF PHOG 291136Z 2912/3012 08012KT P6SM SCT050
      TEMPO 2912/2916 08012G20KT
     FM291600 08012G20KT P6SM SCT050
     FM291900 08020G30KT P6SM FEW050
     FM300800 08012KT P6SM SCT050
      TEMPO 3008/3012 08012G20KT
ハワイ時間29日02-06時:080度から12ノットの風
但し、02-06時の間:一時、080度から12ノット、突風20ノット
06-09時:080度から12ノット、突風20ノット
09-22時:080度から20ノット、突風30ノット
22時-30日02時:080度から12ノットの風
但し、29日22時-30日02時の間:一時、080度から12ノット、突風20ノット

サイパン空港
TAF PGSN 291129Z 2912/3012 08010KT P6SM VCSH FEW020 BKN100
マリアナ時間29日22時-30日22時:080度から10ノットの風

コメント
この記事をはてなブックマークに追加

5/28-5/29の航空気象通報(国内、海外)

2011年05月29日 00時17分47秒 | TAF

羽田空港
TAF RJTT 280841Z 2809/2912 35008KT 5000 -RA BR FEW004 BKN012
      TEMPO 2809/2818 4000 -RA BR FEW002 BKN006
      TEMPO 2818/2903 2000 RA BR FEW003 BKN004
      TEMPO 2903/2912 4000 -RA BR FEW003 BKN006
      BECMG 2906/2909 05015KT
日本時間28日18-29日15時:350度から8ノットの風
15-18時:風が変化
18-21時:050度から15ノットの風

富士山静岡空港
TAF AMD RJNS 281015Z 2810/2912 04005KT 1500 -RA BR FEW002 BKN005
      TEMPO 2810/2815 0500 RA FG FEW001 BKN003
      BECMG 2818/2821 1200 RA BR
      TEMPO 2821/2903 0500 RA FG FEW002 BKN003
      TEMPO 2909/2912 0500 SHRA FG FEW002 BKN003
日本時間28日19時-29日21時:040度から5ノットの風

福岡空港
TAF RJFF 280851Z 2809/2912 01006KT 8000 -SHRA FEW005 SCT010 BKN015
      TEMPO 2809/2812 3500 -SHRA BR FEW003 BKN009 BKN015
      TEMPO 2812/2821 3500 -SHRA BR
      TEMPO 2821/2903 2000 SHRA BR FEW003 BKN006 BKN010
      BECMG 2900/2903 01018KT
      TEMPO 2903/2912 36020G30KT 3000 SHRA BR FEW003 BKN009 BKN015
日本時間28日18時-29日09時:010度から6ノットの風
09-12時:風が変化
12-21時:010度から18ノットの風

那覇空港
TAF AMD ROAH 281304Z 2813/2912 22060KT 7000 SCT008 BKN020
      TEMPO 2813/2814 22075G95KT 2000 +SHRA FEW005 BKN008 SCT020CB
      TEMPO 2814/2816 22060G75KT 2000 +SHRA FEW005 BKN008 SCT020CB
      BECMG 2816/2817 22045KT
      TEMPO 2816/2821 22045G65KT
      BECMG 2821/2824 34020KT
日本時間28日22時-29日01時:220度から60ノットの風
01-02時:風が変化
02-06時:220度から45ノットの風
但し、01-06時の間:一時、220度から45ノット、突風65ノット
06-09時:風が変化
09-21時:340度から20ノットの風

但し、28日22時-29日01時の間:一時、

マウイのカフルイ空港
TAF PHOG 281139Z 2812/2912 05012G18KT P6SM SKC
     FM281900 05020G28KT P6SM FEW060
     FM290800 05012G18KT P6SM SKC
ハワイ時間28日02-09時:050度から12ノット、突風18ノット
09-22時:050度から20ノット、突風28ノット
22時-29日02時:050度から12ノット、突風18ノット

サイパン空港
TAF PGSN 281135Z 2812/2912 08011KT P6SM VCSH FEW020 SCT050
マリアナ時間28日22時-29日22時:080度から11ノットの風

コメント
この記事をはてなブックマークに追加

5/27-5/28の航空気象通報(国内、海外)

2011年05月27日 22時06分57秒 | TAF

羽田空港
TAF RJTT 270838Z 2709/2812 16008KT 9999 FEW015 BKN035
      TEMPO 2715/2718 4000 -RA BR FEW005 BKN008
      BECMG 2718/2721 07010KT 4000 -RA BR FEW004 BKN008
      BECMG 2803/2806 05010KT
      TEMPO 2803/2812 3000 -RA BR FEW003 BKN007
日本時間27日18時-28日03時:160度から8ノットの風
03-06時:風が変化
06-12時:070度から10ノットの風
12-15時:風が変化
15-21時:050度から10ノットの風

但し、28日00-03時の間:一時、

富士山静岡空港
TAF RJNS 270842Z 2709/2812 04008KT 7000 -SHRA FEW008 SCT020 BKN025
      BECMG 2712/2714 3000 -SHRA BR FEW005 BKN007
      TEMPO 2713/2718 1200 SHRA BR FEW002 BKN003
      TEMPO 2806/2812 1200 SHRA BR FEW002 BKN003
日本時間27日18-28日21時:040度から8ノットの風
/kaeru_rain/}

福岡空港
TAF RJFF 270841Z 2709/2812 32006KT 8000 -SHRA FEW010 BKN025
      TEMPO 2709/2713 3500 -SHRA BR
      BECMG 2711/2713 15004KT
      TEMPO 2718/2724 3000 SHRA BR
      BECMG 2800/2803 35008KT
      TEMPO 2800/2809 4000 -SHRA BR
日本時間27日18-20時:320度から6ノットの風
20-22時:風が変化
22時-28日09時:150度から4ノットの風
09-12時:風が変化
12-21時:350度から8ノットの風

那覇空港
TAF ROAH 270851Z 2709/2812 12009KT 9999 FEW008 BKN020
      TEMPO 2709/2710 3000 SHRA FEW005 BKN008 FEW020CB
      TEMPO 2718/2721 2000 +SHRA FEW005 BKN008 SCT020CB
      TEMPO 2806/2812 14025G35KT 3000 SHRA FEW005 BKN008 FEW020CB
日本時間27日18時-28日21時:120度から9ノットの風
但し、28日15-21時の間:一時、140度から25ノット、突風35ノット

但し、27日18-19時の間:一時、
但し、28日03-06時の間:一時、
但し、28日15-21時の間:一時、

マウイのカフルイ空港
TAF PHOG 271139Z 2712/2812 05012G18KT P6SM SKC
     FM271900 05020G28KT P6SM FEW060
     FM280800 05012G18KT P6SM SKC
ハワイ時間27日02-09時:050度から12ノット、突風18ノット
09-22時:050度から20ノット、突風28ノット
22時-28日02時:050度から12ノット、突風18ノット

サイパン空港
TAF PGSN 271137Z 2712/2812 08011KT P6SM VCSH FEW020 BKN100
マリアナ時間27日22時-28日22時:080度から11ノットの風

コメント
この記事をはてなブックマークに追加